createdAt,value
2023-02-12T00:02:17.540Z,20.55
2023-02-12T00:04:44.116Z,22.80
2023-02-12T00:07:10.805Z,21.00
2023-02-12T00:09:37.429Z,22.08
2023-02-12T00:12:04.090Z,23.05
2023-02-12T00:14:30.970Z,23.48
2023-02-12T00:16:57.407Z,19.02
2023-02-12T00:19:24.136Z,20.83
2023-02-12T00:21:50.985Z,27.10
2023-02-12T00:24:17.455Z,19.27
2023-02-12T00:26:43.878Z,24.17
2023-02-12T00:29:10.966Z,23.02
2023-02-12T00:31:37.884Z,21.75
2023-02-12T00:34:04.493Z,19.48
2023-02-12T00:36:31.927Z,20.45
2023-02-12T00:38:59.854Z,22.35
2023-02-12T00:41:26.665Z,18.73
2023-02-12T00:43:53.344Z,21.50
2023-02-12T00:46:20.820Z,22.02
2023-02-12T00:48:48.324Z,26.55
2023-02-12T00:51:15.023Z,22.83
2023-02-12T00:53:41.595Z,22.05
2023-02-12T00:56:08.401Z,22.55
2023-02-12T00:58:34.966Z,22.00
2023-02-12T01:01:01.829Z,23.98
2023-02-12T01:03:28.298Z,22.75
2023-02-12T01:05:55.179Z,21.80
2023-02-12T01:08:22.326Z,20.48
2023-02-12T01:11:04.930Z,22.20
2023-02-12T01:13:32.616Z,19.35
2023-02-12T01:16:10.679Z,18.42
2023-02-12T01:18:38.111Z,21.63
2023-02-12T01:21:29.452Z,20.55
2023-02-12T01:23:56.734Z,18.85
2023-02-12T01:26:24.505Z,23.67
2023-02-12T01:28:53.867Z,24.95
2023-02-12T01:31:24.431Z,21.08
2023-02-12T01:33:53.652Z,20.95
2023-02-12T01:36:20.349Z,28.35
2023-02-12T01:38:49.335Z,24.10
2023-02-12T01:41:19.210Z,22.08
2023-02-12T01:43:46.671Z,22.40
2023-02-12T01:46:15.265Z,22.73
2023-02-12T01:48:46.877Z,21.98
2023-02-12T01:51:19.969Z,24.58
2023-02-12T01:53:50.586Z,21.08
2023-02-12T01:56:18.129Z,23.58
2023-02-12T01:58:47.304Z,21.15
2023-02-12T02:01:19.789Z,21.58
2023-02-12T02:03:52.154Z,26.52
2023-02-12T02:06:31.366Z,26.75
2023-02-12T02:09:00.726Z,23.88
2023-02-12T02:11:45.758Z,18.85
2023-02-12T02:14:31.374Z,21.45
2023-02-12T02:17:13.172Z,21.65
2023-02-12T02:19:55.420Z,25.50
2023-02-12T02:22:37.938Z,18.25
2023-02-12T02:25:25.505Z,23.20
2023-02-12T02:28:15.160Z,21.48
2023-02-12T02:31:09.159Z,26.05
2023-02-12T02:34:04.703Z,20.80
2023-02-12T02:36:58.309Z,28.15
2023-02-12T02:39:38.910Z,25.60
2023-02-12T02:42:22.271Z,23.45
2023-02-12T02:45:00.120Z,22.60
2023-02-12T02:47:38.061Z,22.25
2023-02-12T02:50:17.229Z,24.77
2023-02-12T02:52:50.333Z,22.38
2023-02-12T02:55:20.610Z,18.88
2023-02-12T02:57:56.299Z,21.08
2023-02-12T03:00:37.461Z,22.45
2023-02-12T03:03:32.218Z,23.20
2023-02-12T03:06:04.912Z,22.80
2023-02-12T03:08:42.377Z,22.88
2023-02-12T03:11:17.410Z,22.90
2023-02-12T03:13:50.034Z,24.00
2023-02-12T03:16:27.565Z,22.45
2023-02-12T03:19:01.761Z,21.35
2023-02-12T03:21:42.002Z,20.08
2023-02-12T03:24:19.715Z,20.33
2023-02-12T03:26:51.081Z,19.80
2023-02-12T03:29:17.737Z,22.85
2023-02-12T03:31:54.881Z,23.88
2023-02-12T03:35:06.288Z,18.65
2023-02-12T03:37:46.016Z,19.48
2023-02-12T03:40:34.772Z,23.00
2023-02-12T03:43:22.979Z,24.30
2023-02-12T03:46:04.441Z,21.65
2023-02-12T03:48:42.112Z,25.08
2023-02-12T03:51:20.817Z,18.50
2023-02-12T03:53:48.166Z,19.63
2023-02-12T03:56:20.370Z,21.10
2023-02-12T03:58:46.828Z,25.42
2023-02-12T04:01:14.249Z,19.45
2023-02-12T04:03:41.642Z,21.42
2023-02-12T04:06:23.015Z,16.88
2023-02-12T04:08:49.863Z,20.38
2023-02-12T04:11:34.018Z,21.42
2023-02-12T04:14:19.250Z,20.95
2023-02-12T04:16:52.681Z,18.73
2023-02-12T04:19:33.431Z,22.08
2023-02-12T04:22:18.082Z,22.67
2023-02-12T04:25:11.950Z,17.95
2023-02-12T04:28:07.269Z,19.42
2023-02-12T04:30:48.429Z,20.50
2023-02-12T04:33:20.734Z,21.33
2023-02-12T04:35:55.184Z,20.42
2023-02-12T04:38:40.299Z,17.70
2023-02-12T04:41:09.109Z,17.52
2023-02-12T04:43:37.746Z,19.77
2023-02-12T04:46:06.691Z,16.88
2023-02-12T04:48:34.555Z,17.25
2023-02-12T04:51:02.281Z,16.58
2023-02-12T04:53:29.144Z,17.20
2023-02-12T04:55:55.856Z,19.23
2023-02-12T04:58:22.733Z,22.20
2023-02-12T05:00:49.201Z,18.90
2023-02-12T05:03:15.853Z,17.85
2023-02-12T05:05:42.298Z,19.20
2023-02-12T05:08:08.765Z,20.23
2023-02-12T05:10:35.221Z,22.40
2023-02-12T05:13:01.689Z,21.35
2023-02-12T05:15:28.248Z,20.27
2023-02-12T05:17:54.818Z,21.90
2023-02-12T05:20:21.378Z,19.63
2023-02-12T05:22:52.009Z,20.65
2023-02-12T05:25:18.614Z,20.50
2023-02-12T05:27:45.112Z,21.77
2023-02-12T05:30:12.305Z,21.00
2023-02-12T05:32:39.209Z,20.52
2023-02-12T05:35:06.117Z,18.02
2023-02-12T05:37:36.580Z,23.55
2023-02-12T05:40:06.797Z,19.70
2023-02-12T05:42:33.400Z,27.45
2023-02-12T05:44:59.916Z,17.55
2023-02-12T05:47:26.354Z,21.65
2023-02-12T05:49:52.826Z,21.95
2023-02-12T05:52:19.459Z,22.23
2023-02-12T05:54:49.444Z,21.70
2023-02-12T05:57:16.007Z,23.00
2023-02-12T05:59:42.474Z,22.98
2023-02-12T06:02:11.665Z,20.15
2023-02-12T06:04:38.169Z,21.05
2023-02-12T06:07:04.717Z,22.48
2023-02-12T06:09:31.164Z,22.05
2023-02-12T06:11:57.606Z,26.08
2023-02-12T06:14:24.319Z,24.10
2023-02-12T06:16:51.804Z,19.17
2023-02-12T06:19:19.811Z,23.92
2023-02-12T06:21:46.753Z,25.60
2023-02-12T06:24:15.308Z,24.98
2023-02-12T06:26:42.525Z,26.00
2023-02-12T06:29:09.466Z,23.20
2023-02-12T06:31:37.089Z,20.88
2023-02-12T06:34:06.432Z,22.05
2023-02-12T06:36:33.758Z,24.98
2023-02-12T06:39:03.666Z,20.70
2023-02-12T06:41:30.517Z,23.38
2023-02-12T06:43:57.033Z,21.92
2023-02-12T06:46:23.672Z,27.02
2023-02-12T06:48:54.842Z,20.08
2023-02-12T06:51:24.376Z,23.90
2023-02-12T06:53:52.580Z,18.75
2023-02-12T06:56:20.808Z,20.50
2023-02-12T06:58:51.975Z,25.17
2023-02-12T07:01:23.967Z,21.77
2023-02-12T07:03:53.361Z,25.02
2023-02-12T07:06:20.371Z,25.50
2023-02-12T07:08:47.326Z,23.90
2023-02-12T07:11:13.991Z,25.48
2023-02-12T07:13:41.290Z,27.92
2023-02-12T07:16:11.095Z,22.27
2023-02-12T07:18:39.490Z,23.35
2023-02-12T07:21:08.470Z,24.60
2023-02-12T07:23:35.728Z,24.95
2023-02-12T07:26:05.453Z,21.73
2023-02-12T07:28:33.963Z,23.05
2023-02-12T07:31:07.839Z,18.70
2023-02-12T07:33:34.955Z,21.17
2023-02-12T07:36:02.206Z,26.88
2023-02-12T07:38:28.896Z,33.38
2023-02-12T07:41:14.313Z,21.70
2023-02-12T07:43:43.334Z,25.00
2023-02-12T07:46:17.601Z,25.55
2023-02-12T07:48:45.404Z,22.83
2023-02-12T07:51:15.601Z,21.67
2023-02-12T07:53:42.905Z,23.50
2023-02-12T07:56:12.547Z,19.85
2023-02-12T08:01:47.095Z,31.25
2023-02-12T08:04:16.528Z,19.55
2023-02-12T08:06:45.535Z,21.02
2023-02-12T08:09:15.597Z,19.83
2023-02-12T08:11:44.769Z,20.02
2023-02-12T08:14:13.830Z,21.10
2023-02-12T08:16:42.224Z,16.83
2023-02-12T08:19:18.712Z,20.80
2023-02-12T08:21:48.874Z,15.98
2023-02-12T08:24:15.497Z,17.20
2023-02-12T08:26:42.017Z,12.98
2023-02-12T08:29:12.221Z,16.70
2023-02-12T08:31:41.599Z,15.02
2023-02-12T08:34:17.701Z,17.48
2023-02-12T08:36:44.837Z,15.57
2023-02-12T08:39:12.237Z,16.88
2023-02-12T08:41:38.750Z,17.75
2023-02-12T08:44:05.909Z,15.25
2023-02-12T08:46:35.071Z,13.30
2023-02-12T08:49:23.368Z,16.20
2023-02-12T08:51:52.676Z,12.02
2023-02-12T08:54:25.242Z,12.30
2023-02-12T08:56:59.114Z,13.20
2023-02-12T08:59:27.058Z,16.23
2023-02-12T09:01:54.358Z,14.35
2023-02-12T09:04:26.893Z,15.32
2023-02-12T09:06:54.113Z,15.18
2023-02-12T09:09:23.606Z,14.40
2023-02-12T09:11:50.475Z,13.40
2023-02-12T09:14:18.834Z,17.35
2023-02-12T09:16:45.467Z,20.52
2023-02-12T09:19:14.053Z,13.65
2023-02-12T09:21:40.906Z,12.70
2023-02-12T09:24:08.342Z,12.38
2023-02-12T09:26:35.056Z,11.57
2023-02-12T09:29:04.288Z,14.45
2023-02-12T09:31:33.555Z,15.48
2023-02-12T09:34:06.364Z,13.77
2023-02-12T09:36:33.499Z,15.93
2023-02-12T09:39:00.895Z,15.20
2023-02-12T09:41:52.183Z,13.32
2023-02-12T09:44:27.444Z,15.13
2023-02-12T09:47:11.698Z,17.58
2023-02-12T09:49:40.960Z,16.45
2023-02-12T09:52:15.529Z,19.35
2023-02-12T09:54:42.361Z,19.65
2023-02-12T09:57:37.859Z,27.50
2023-02-12T10:00:18.301Z,21.45
2023-02-12T10:02:45.091Z,16.92
2023-02-12T10:05:27.010Z,15.05
2023-02-12T10:08:12.237Z,17.17
2023-02-12T10:10:52.946Z,23.25
2023-02-12T10:13:35.551Z,14.63
2023-02-12T10:16:25.507Z,13.70
2023-02-12T10:19:02.935Z,14.50
2023-02-12T10:21:38.717Z,14.75
2023-02-12T10:24:51.657Z,20.40
2023-02-12T10:27:34.694Z,25.10
2023-02-12T10:30:13.874Z,26.63
2023-02-12T10:32:43.355Z,23.92
2023-02-12T10:35:15.800Z,22.33
2023-02-12T10:38:07.748Z,26.33
2023-02-12T10:40:38.388Z,22.23
2023-02-12T10:43:04.922Z,23.17
2023-02-12T10:45:34.257Z,18.70
2023-02-12T10:48:08.803Z,20.15
2023-02-12T10:50:49.252Z,25.02
2023-02-12T10:53:35.287Z,19.92
2023-02-12T10:56:20.954Z,19.52
2023-02-12T10:58:50.487Z,19.88
2023-02-12T11:01:22.178Z,24.02
2023-02-12T11:03:48.895Z,16.15
2023-02-12T11:06:30.688Z,16.55
2023-02-12T11:08:58.638Z,16.00
2023-02-12T11:11:33.157Z,17.17
2023-02-12T11:14:21.067Z,19.52
2023-02-12T11:16:55.796Z,18.63
2023-02-12T11:19:28.224Z,15.15
2023-02-12T11:22:10.326Z,16.95
2023-02-12T11:24:38.251Z,18.42
2023-02-12T11:27:17.009Z,15.50
2023-02-12T11:29:48.883Z,18.83
2023-02-12T11:32:19.611Z,21.77
2023-02-12T11:35:18.690Z,17.77
2023-02-12T11:37:46.976Z,18.17
2023-02-12T11:40:24.219Z,20.73
2023-02-12T11:42:58.110Z,16.13
2023-02-12T11:45:34.543Z,21.65
2023-02-12T11:48:01.875Z,26.75
2023-02-12T11:50:31.336Z,29.08
2023-02-12T11:53:08.080Z,21.15
2023-02-12T11:55:39.235Z,27.33
2023-02-12T11:58:17.737Z,22.48
2023-02-12T12:01:04.468Z,25.60
2023-02-12T12:04:02.547Z,23.17
2023-02-12T12:06:35.330Z,21.20
2023-02-12T12:09:10.983Z,22.40
2023-02-12T12:11:46.420Z,22.13
2023-02-12T12:14:27.174Z,23.25
2023-02-12T12:17:23.537Z,26.02
2023-02-12T12:20:17.956Z,24.98
2023-02-12T12:22:54.598Z,29.00
2023-02-12T12:25:24.264Z,29.63
2023-02-12T12:28:06.508Z,30.67
2023-02-12T12:31:10.216Z,32.72
2023-02-12T12:34:17.115Z,27.75
2023-02-12T12:37:08.536Z,27.35
2023-02-12T12:39:54.913Z,26.42
2023-02-12T12:42:49.594Z,23.00
2023-02-12T12:46:12.843Z,24.20
2023-02-12T12:48:50.024Z,20.70
2023-02-12T12:51:30.599Z,26.25
2023-02-12T12:54:19.090Z,21.45
2023-02-12T12:57:05.855Z,17.52
2023-02-12T12:59:49.681Z,19.38
2023-02-12T13:02:54.554Z,22.33
2023-02-12T13:05:48.550Z,21.75
2023-02-12T13:08:41.535Z,17.40
2023-02-12T13:11:25.419Z,19.00
2023-02-12T13:14:02.287Z,24.70
2023-02-12T13:16:36.471Z,19.90
2023-02-12T13:19:28.462Z,19.92
2023-02-12T13:22:09.839Z,19.15
2023-02-12T13:24:58.224Z,20.02
2023-02-12T13:27:30.807Z,21.13
2023-02-12T13:30:06.823Z,18.33
2023-02-12T13:32:37.996Z,19.85
2023-02-12T13:35:07.610Z,18.38
2023-02-12T13:37:48.833Z,19.42
2023-02-12T13:40:21.649Z,17.90
2023-02-12T13:42:58.638Z,19.15
2023-02-12T13:45:38.602Z,15.07
2023-02-12T13:48:53.298Z,16.90
2023-02-12T13:51:44.026Z,16.40
2023-02-12T13:54:37.630Z,18.48
2023-02-12T13:57:12.251Z,21.50
2023-02-12T13:59:41.664Z,17.35
2023-02-12T14:02:29.693Z,17.80
2023-02-12T14:04:59.865Z,20.60
2023-02-12T14:07:45.708Z,16.98
2023-02-12T14:10:41.239Z,16.33
2023-02-12T14:13:19.481Z,16.67
2023-02-12T14:15:51.606Z,14.65
2023-02-12T14:18:32.111Z,18.75
2023-02-12T14:21:13.856Z,15.15
2023-02-12T14:23:42.646Z,15.77
2023-02-12T14:26:12.655Z,16.58
2023-02-12T14:28:59.174Z,15.88
2023-02-12T14:31:38.617Z,15.70
2023-02-12T14:34:05.106Z,13.50
2023-02-12T14:36:32.094Z,16.33
2023-02-12T14:39:04.802Z,12.77
2023-02-12T14:41:37.886Z,14.18
2023-02-12T14:44:23.229Z,12.30
2023-02-12T14:46:59.307Z,14.93
2023-02-12T14:49:36.805Z,18.08
2023-02-12T14:52:13.863Z,13.63
2023-02-12T14:54:47.354Z,13.18
2023-02-12T14:57:36.080Z,12.02
2023-02-12T15:00:05.653Z,11.60
2023-02-12T15:02:36.175Z,12.02
2023-02-12T15:05:13.700Z,11.60
2023-02-12T15:08:05.169Z,15.55
2023-02-12T15:10:39.865Z,12.48
2023-02-12T15:13:30.261Z,14.15
2023-02-12T15:16:09.440Z,10.32
2023-02-12T15:18:55.532Z,14.13
2023-02-12T15:21:31.860Z,11.82
2023-02-12T15:24:06.011Z,10.95
2023-02-12T15:26:37.915Z,15.07
2023-02-12T15:29:05.592Z,14.70
2023-02-12T15:31:33.660Z,10.48
2023-02-12T15:34:03.955Z,9.93
2023-02-12T15:36:33.223Z,10.75
2023-02-12T15:39:06.450Z,9.30
2023-02-12T15:41:33.019Z,11.02
2023-02-12T15:44:01.239Z,11.60
2023-02-12T15:46:29.697Z,11.35
2023-02-12T15:48:56.650Z,11.15
2023-02-12T15:51:35.433Z,9.80
2023-02-12T15:54:06.345Z,9.88
2023-02-12T15:56:36.241Z,11.77
2023-02-12T15:59:04.413Z,10.45
2023-02-12T16:01:35.699Z,10.95
2023-02-12T16:04:05.283Z,9.23
2023-02-12T16:06:36.766Z,12.63
2023-02-12T16:09:03.793Z,14.93
2023-02-12T16:11:32.673Z,13.32
2023-02-12T16:14:24.589Z,16.52
2023-02-12T16:16:55.849Z,17.88
2023-02-12T16:19:33.061Z,18.15
2023-02-12T16:22:05.835Z,23.08
2023-02-12T16:24:37.265Z,22.38
2023-02-12T16:27:20.416Z,19.50
2023-02-12T16:29:50.551Z,23.83
2023-02-12T16:32:44.984Z,18.17
2023-02-12T16:35:11.720Z,17.23
2023-02-12T16:37:38.501Z,14.07
2023-02-12T16:40:15.437Z,12.00
2023-02-12T16:42:47.973Z,15.00
2023-02-12T16:45:27.549Z,11.80
2023-02-12T16:48:07.541Z,12.13
2023-02-12T16:50:39.372Z,13.63
2023-02-12T16:53:22.499Z,12.93
2023-02-12T16:55:49.836Z,12.07
2023-02-12T16:58:16.899Z,10.38
2023-02-12T17:00:43.548Z,12.23
2023-02-12T17:03:14.885Z,11.40
2023-02-12T17:05:43.603Z,10.50
2023-02-12T17:08:14.842Z,12.40
2023-02-12T17:10:41.712Z,12.85
2023-02-12T17:13:09.667Z,14.98
2023-02-12T17:15:57.793Z,11.20
2023-02-12T17:18:25.097Z,10.85
2023-02-12T17:20:57.794Z,13.27
2023-02-12T17:23:25.186Z,12.88
2023-02-12T17:25:53.559Z,13.55
2023-02-12T17:28:21.617Z,12.50
2023-02-12T17:30:49.101Z,13.15
2023-02-12T17:33:16.375Z,11.15
2023-02-12T17:35:43.154Z,8.82
2023-02-12T17:38:09.796Z,12.07
2023-02-12T17:40:38.326Z,11.15
2023-02-12T17:43:05.823Z,13.02
2023-02-12T17:45:34.126Z,12.43
2023-02-12T17:48:00.777Z,10.35
2023-02-12T17:50:27.385Z,10.70
2023-02-12T17:52:54.980Z,9.82
2023-02-12T17:55:21.691Z,9.65
2023-02-12T17:57:54.366Z,8.55
2023-02-12T18:00:22.713Z,8.77
2023-02-12T18:02:51.977Z,9.48
2023-02-12T18:05:18.690Z,9.65
2023-02-12T18:07:46.964Z,9.90
2023-02-12T18:10:14.285Z,11.13
2023-02-12T18:12:42.502Z,12.93
2023-02-12T18:15:10.279Z,9.93
2023-02-12T18:17:37.030Z,10.77
2023-02-12T18:20:04.323Z,9.00
2023-02-12T18:22:33.388Z,8.10
2023-02-12T18:25:01.283Z,7.40
2023-02-12T18:27:30.408Z,8.23
2023-02-12T18:29:58.312Z,9.40
2023-02-12T18:32:24.978Z,8.63
2023-02-12T18:34:51.888Z,8.15
2023-02-12T18:37:18.569Z,9.00
2023-02-12T18:39:45.174Z,8.23
2023-02-12T18:42:11.981Z,7.97
2023-02-12T18:44:41.090Z,11.80
2023-02-12T18:47:07.602Z,8.35
2023-02-12T18:49:34.234Z,7.90
2023-02-12T18:52:02.098Z,10.05
2023-02-12T18:54:29.084Z,13.63
2023-02-12T18:56:55.581Z,12.35
2023-02-12T18:59:22.753Z,9.13
2023-02-12T19:01:53.085Z,17.10
2023-02-12T19:04:21.838Z,13.50
2023-02-12T19:06:50.929Z,9.00
2023-02-12T19:09:20.288Z,9.68
2023-02-12T19:11:52.197Z,11.48
2023-02-12T19:14:20.492Z,10.10
2023-02-12T19:16:48.326Z,12.77
2023-02-12T19:19:16.456Z,11.00
2023-02-12T19:21:43.719Z,10.98
2023-02-12T19:24:12.788Z,12.73
2023-02-12T19:26:41.386Z,12.27
2023-02-12T19:29:08.765Z,11.73
2023-02-12T19:31:38.338Z,11.65
2023-02-12T19:34:17.654Z,12.63
2023-02-12T19:36:45.242Z,15.50
2023-02-12T19:39:17.653Z,13.02
2023-02-12T19:41:47.928Z,22.13
2023-02-12T19:44:21.102Z,13.07
2023-02-12T19:46:51.574Z,15.13
2023-02-12T19:49:21.093Z,15.07
2023-02-12T19:51:48.249Z,12.90
2023-02-12T19:54:18.458Z,15.30
2023-02-12T19:56:45.349Z,13.75
2023-02-12T19:59:19.838Z,11.80
2023-02-12T20:01:48.436Z,15.02
2023-02-12T20:04:18.536Z,13.77
2023-02-12T20:06:49.034Z,14.05
2023-02-12T20:09:15.658Z,17.67
2023-02-12T20:11:42.344Z,15.43
2023-02-12T20:14:11.524Z,11.07
2023-02-12T20:16:41.539Z,10.18
2023-02-12T20:19:18.082Z,12.05
2023-02-12T20:21:45.261Z,14.02
2023-02-12T20:24:16.114Z,13.98
2023-02-12T20:26:42.729Z,13.43
2023-02-12T20:29:09.379Z,12.77
2023-02-12T20:31:37.468Z,11.77
2023-02-12T20:34:11.095Z,13.75
2023-02-12T20:36:40.593Z,12.63
2023-02-12T20:39:10.829Z,12.65
2023-02-12T20:41:37.592Z,11.43
2023-02-12T20:44:06.248Z,9.63
2023-02-12T20:46:36.089Z,13.25
2023-02-12T20:49:05.106Z,11.18
2023-02-12T20:51:32.245Z,8.23
2023-02-12T20:54:01.630Z,8.95
2023-02-12T20:56:31.668Z,13.45
2023-02-12T20:58:58.971Z,13.73
2023-02-12T21:01:31.522Z,12.25
2023-02-12T21:04:05.565Z,13.50
2023-02-12T21:06:33.373Z,13.35
2023-02-12T21:09:02.662Z,11.07
2023-02-12T21:11:29.733Z,12.10
2023-02-12T21:14:02.612Z,12.40
2023-02-12T21:16:37.227Z,12.15
2023-02-12T21:19:04.951Z,11.82
2023-02-12T21:21:34.318Z,14.18
2023-02-12T21:24:03.163Z,13.60
2023-02-12T21:26:32.136Z,14.40
2023-02-12T21:29:00.132Z,12.57
2023-02-12T21:31:32.507Z,13.50
2023-02-12T21:34:00.794Z,13.95
2023-02-12T21:36:36.397Z,11.95
2023-02-12T21:39:04.949Z,11.40
2023-02-12T21:41:37.360Z,12.02
2023-02-12T21:44:10.496Z,13.57
2023-02-12T21:46:37.221Z,15.75
2023-02-12T21:49:04.883Z,12.23
2023-02-12T21:51:40.449Z,14.00
2023-02-12T21:54:11.522Z,17.15
2023-02-12T21:56:40.066Z,12.93
2023-02-12T21:59:08.602Z,12.30
2023-02-12T22:01:41.626Z,12.90
2023-02-12T22:04:09.187Z,11.38
2023-02-12T22:06:45.792Z,12.60
2023-02-12T22:09:14.324Z,13.10
2023-02-12T22:11:41.966Z,10.82
2023-02-12T22:14:12.677Z,11.15
2023-02-12T22:16:40.944Z,11.50
2023-02-12T22:19:08.255Z,12.18
2023-02-12T22:21:37.617Z,11.80
2023-02-12T22:24:07.420Z,11.68
2023-02-12T22:26:34.350Z,13.57
2023-02-12T22:29:06.904Z,9.57
2023-02-12T22:31:37.229Z,12.23
2023-02-12T22:34:07.184Z,11.95
2023-02-12T22:36:35.478Z,11.25
2023-02-12T22:39:02.281Z,11.07
2023-02-12T22:41:29.392Z,14.68
2023-02-12T22:43:59.380Z,11.85
2023-02-12T22:46:26.489Z,12.25
2023-02-12T22:48:53.063Z,15.10
2023-02-12T22:51:26.578Z,22.95
2023-02-12T22:53:55.142Z,16.00
2023-02-12T22:56:24.033Z,16.38
2023-02-12T22:58:55.885Z,16.98
2023-02-12T23:01:23.398Z,17.58
2023-02-12T23:03:51.404Z,14.15
2023-02-12T23:06:20.628Z,14.93
2023-02-12T23:08:51.930Z,12.60
2023-02-12T23:11:19.409Z,15.52
2023-02-12T23:13:46.003Z,13.13
2023-02-12T23:16:13.089Z,11.93
2023-02-12T23:18:39.693Z,12.90
2023-02-12T23:21:06.406Z,12.90
2023-02-12T23:23:32.964Z,11.75
2023-02-12T23:25:59.699Z,12.93
2023-02-12T23:28:26.339Z,17.95
2023-02-12T23:30:53.453Z,13.65
2023-02-12T23:33:20.857Z,12.95
2023-02-12T23:35:48.681Z,11.93
2023-02-12T23:38:17.640Z,12.23
2023-02-12T23:40:44.996Z,11.27
2023-02-12T23:43:11.541Z,11.35
2023-02-12T23:45:38.304Z,14.02
2023-02-12T23:48:06.001Z,12.43
2023-02-12T23:50:34.086Z,12.02
2023-02-12T23:53:00.719Z,13.63
2023-02-12T23:55:27.877Z,14.18
2023-02-12T23:57:54.402Z,15.75
